Terminal Aerodrome Forecast
Issued by NWS Wakefield, VA

Home | Current Version | Previous Version | Text Only | Print | Product List | Glossary On
Versions: 1 2 3 4 5 6 7 8 9 10 11 12
000
FTUS41 KAKQ 210500
TAFRIC
TAF
KRIC 210540Z 2106/2206 01003KT P6SM BKN250
     FM210900 01003KT 5SM BR SCT005 BKN250
      TEMPO 2109/2112 2SM BR BKN005
     FM211300 35004KT P6SM SCT040
     FM211800 26009KT P6SM SCT060=

USA.gov is the U.S. government's official web portal to all federal, state and local government web resources and services.